Time;durP1;ratioP1;P1;durP2;ratioP2;P2;SDS_P1;SDS_P2;PMS_P1;PMS_P2;Temp;Humidity;BMP_temperature;BMP_pressure;BME280_temperature;BME280_humidity;BME280_pressure;Samples;Min_cycle;Max_cycle;Signal;HPM_P1;HPM_P2
2023/06/16 00:01:06;;;;;;;8.70;4.50;;;15.80;99.90;;;;;;5026754;28;20064;-34
2023/06/16 00:03:35;;;;;;;5.20;4.30;;;15.80;99.90;;;;;;5021877;28;20048;-36
2023/06/16 00:06:14;;;;;;;6.13;4.88;;;15.80;99.90;;;;;;5021728;28;20037;-36
2023/06/16 00:08:44;;;;;;;5.18;4.53;;;15.70;99.90;;;;;;5022783;28;20461;-35
2023/06/16 00:11:10;;;;;;;7.55;4.65;;;15.70;99.90;;;;;;5029319;28;20037;-36
2023/06/16 00:13:36;;;;;;;5.05;4.65;;;15.60;99.90;;;;;;5010902;28;20091;-36
2023/06/16 00:16:02;;;;;;;6.40;4.72;;;15.60;99.90;;;;;;5026712;28;20029;-37
2023/06/16 00:18:29;;;;;;;5.18;4.65;;;15.60;99.90;;;;;;5029579;28;20038;-39
2023/06/16 00:20:57;;;;;;;5.45;4.95;;;15.50;99.90;;;;;;5009127;28;20045;-38
2023/06/16 00:23:23;;;;;;;8.95;4.90;;;15.50;99.90;;;;;;5024310;28;20041;-35
2023/06/16 00:25:49;;;;;;;6.35;5.07;;;15.50;99.90;;;;;;5028887;22;20041;-86
2023/06/16 00:28:15;;;;;;;5.15;4.60;;;15.40;99.90;;;;;;4978553;28;20041;-86
2023/06/16 00:30:41;;;;;;;4.50;4.10;;;15.50;99.90;;;;;;4995203;28;20056;-86
2023/06/16 00:33:06;;;;;;;5.60;4.90;;;15.40;99.90;;;;;;4981251;28;20087;-85
2023/06/16 00:35:32;;;;;;;5.85;4.93;;;15.40;99.90;;;;;;4977777;28;20046;-85
2023/06/16 00:37:58;;;;;;;5.38;4.85;;;15.30;99.90;;;;;;4995225;28;20038;-85
2023/06/16 00:40:23;;;;;;;5.45;4.65;;;15.30;99.90;;;;;;4978616;28;20520;-86
2023/06/16 00:42:49;;;;;;;5.55;4.78;;;15.30;99.90;;;;;;4978476;28;20060;-85
2023/06/16 00:45:14;;;;;;;5.13;4.63;;;15.20;99.90;;;;;;4978658;28;20033;-87
2023/06/16 00:47:40;;;;;;;7.45;5.13;;;15.20;99.90;;;;;;4991082;28;20127;-88
2023/06/16 00:50:07;;;;;;;5.82;5.32;;;15.20;99.90;;;;;;4973398;28;20048;-86
2023/06/16 00:52:37;;;;;;;5.82;5.25;;;15.20;99.90;;;;;;4978056;28;20042;-85
2023/06/16 00:55:03;;;;;;;5.18;4.68;;;15.10;99.90;;;;;;4994040;28;20041;-85
2023/06/16 00:57:29;;;;;;;6.40;5.53;;;15.10;99.90;;;;;;5011113;28;20132;-85
2023/06/16 00:59:55;;;;;;;9.88;5.60;;;15.00;99.90;;;;;;4977996;28;20034;-85
2023/06/16 01:02:20;;;;;;;6.07;5.13;;;15.00;99.90;;;;;;4997307;28;20034;-85
2023/06/16 01:04:48;;;;;;;7.70;5.15;;;15.00;99.90;;;;;;4978263;28;20034;-85
2023/06/16 01:07:28;;;;;;;6.30;5.45;;;14.90;99.90;;;;;;4995107;28;20046;-85
2023/06/16 01:10:05;;;;;;;6.55;5.53;;;14.90;99.90;;;;;;5004084;28;20496;-85
2023/06/16 01:13:00;;;;;;;9.77;6.43;;;14.90;99.90;;;;;;4987164;28;20038;-85
2023/06/16 01:15:27;;;;;;;6.43;5.38;;;14.80;99.90;;;;;;4994623;28;20048;-85
2023/06/16 01:17:56;;;;;;;6.78;5.28;;;14.80;99.90;;;;;;5010902;28;20520;-86
2023/06/16 01:20:43;;;;;;;6.43;5.10;;;14.80;99.90;;;;;;5010924;28;20382;-86
2023/06/16 01:23:20;;;;;;;5.82;5.25;;;14.80;99.90;;;;;;4978257;28;20092;-85
2023/06/16 01:25:48;;;;;;;6.88;5.30;;;14.80;99.90;;;;;;4994892;28;20033;-85
2023/06/16 01:28:18;;;;;;;5.78;5.07;;;14.80;99.90;;;;;;5011401;28;20042;-85
2023/06/16 01:30:46;;;;;;;6.57;5.50;;;14.80;99.90;;;;;;5011680;28;20440;-85
2023/06/16 01:33:13;;;;;;;7.10;5.32;;;14.70;99.90;;;;;;4994385;28;20041;-85
2023/06/16 01:35:40;;;;;;;6.35;5.75;;;14.70;99.90;;;;;;4978465;28;20758;-85
2023/06/16 01:38:06;;;;;;;5.95;5.32;;;14.70;99.90;;;;;;4993830;28;20084;-85
2023/06/16 01:40:33;;;;;;;9.02;4.75;;;14.70;99.90;;;;;;4978548;28;20485;-86
2023/06/16 01:43:37;;;;;;;5.85;5.10;;;14.70;99.90;;;;;;4997592;28;20030;-87
2023/06/16 01:46:03;;;;;;;5.57;4.70;;;14.60;99.90;;;;;;4993547;28;20141;-86
2023/06/16 01:48:30;;;;;;;6.40;5.32;;;14.60;99.90;;;;;;4995233;28;20077;-85
2023/06/16 01:50:55;;;;;;;6.03;5.47;;;14.60;99.90;;;;;;4977550;28;20076;-85
2023/06/16 01:53:21;;;;;;;7.05;5.43;;;14.50;99.90;;;;;;4967763;28;20069;-85
2023/06/16 01:55:51;;;;;;;6.43;5.82;;;14.50;99.90;;;;;;5013708;28;20041;-85
2023/06/16 01:58:19;;;;;;;8.27;5.40;;;14.50;99.90;;;;;;5005293;28;20093;-85
2023/06/16 02:01:07;;;;;;;6.03;4.88;;;14.50;99.90;;;;;;4994440;28;20034;-85
2023/06/16 02:03:43;;;;;;;7.38;5.50;;;14.50;99.90;;;;;;4986795;28;20038;-85
2023/06/16 02:06:17;;;;;;;7.78;5.38;;;14.40;99.90;;;;;;4977920;28;20408;-85
2023/06/16 02:08:45;;;;;;;5.57;4.97;;;14.40;99.90;;;;;;4994365;28;20046;-85
2023/06/16 02:11:11;;;;;;;7.43;5.30;;;14.30;99.90;;;;;;4993918;28;20044;-85
2023/06/16 02:13:37;;;;;;;5.30;4.80;;;14.30;99.90;;;;;;4992435;28;20045;-85
2023/06/16 02:16:03;;;;;;;7.32;5.53;;;14.30;99.90;;;;;;4978138;28;20400;-85
2023/06/16 02:18:32;;;;;;;5.32;4.60;;;14.30;99.90;;;;;;4975730;28;20523;-85
2023/06/16 02:20:58;;;;;;;5.30;4.60;;;14.30;99.90;;;;;;4994184;28;20042;-85
2023/06/16 02:23:24;;;;;;;8.45;5.30;;;14.20;99.90;;;;;;4992727;28;20038;-86
2023/06/16 02:25:50;;;;;;;6.63;5.40;;;14.20;99.90;;;;;;4994019;28;20474;-86
2023/06/16 02:31:47;;;;;;;8.32;5.65;;;14.20;99.90;;;;;;4975130;28;20070;-85
2023/06/16 02:34:13;;;;;;;8.60;5.20;;;14.10;99.90;;;;;;5017655;22;20573;-33
2023/06/16 02:36:39;;;;;;;7.78;4.88;;;14.10;99.90;;;;;;4995638;28;20038;-32
2023/06/16 02:39:05;;;;;;;5.68;5.18;;;14.10;99.90;;;;;;5009697;28;20030;-31
2023/06/16 02:41:31;;;;;;;6.25;5.40;;;14.00;99.90;;;;;;5015832;28;20245;-31
2023/06/16 02:43:57;;;;;;;8.70;5.90;;;14.00;99.90;;;;;;4990505;28;20270;-31
2023/06/16 02:46:22;;;;;;;6.05;5.40;;;13.90;99.90;;;;;;5018246;28;20079;-31
2023/06/16 02:48:48;;;;;;;7.10;5.80;;;13.90;99.90;;;;;;5018738;28;20080;-31
2023/06/16 02:51:14;;;;;;;6.40;5.20;;;13.90;99.90;;;;;;5015159;28;20052;-32
2023/06/16 02:53:39;;;;;;;8.23;5.70;;;13.80;99.90;;;;;;5018331;28;20037;-34
2023/06/16 02:56:06;;;;;;;5.95;5.43;;;13.80;99.90;;;;;;5011852;28;20029;-31
2023/06/16 02:58:32;;;;;;;6.80;5.88;;;13.80;99.90;;;;;;4995052;28;20044;-32
2023/06/16 03:00:58;;;;;;;6.72;5.95;;;13.80;99.90;;;;;;5011905;28;20033;-34
2023/06/16 03:03:25;;;;;;;6.95;5.63;;;13.80;99.90;;;;;;5014438;28;20029;-32
2023/06/16 03:05:51;;;;;;;7.18;5.72;;;13.70;99.90;;;;;;5025651;28;20037;-34
2023/06/16 03:08:16;;;;;;;8.45;6.40;;;13.70;99.90;;;;;;5011952;28;20033;-32
2023/06/16 03:10:42;;;;;;;7.43;6.50;;;13.70;99.90;;;;;;5012002;28;20037;-31
2023/06/16 03:13:08;;;;;;;8.75;6.47;;;13.70;99.90;;;;;;5010885;28;20407;-32
2023/06/16 03:15:36;;;;;;;7.80;6.20;;;13.60;99.90;;;;;;5013302;28;20037;-31
2023/06/16 03:18:02;;;;;;;7.38;6.25;;;13.60;99.90;;;;;;5011724;28;20051;-31
2023/06/16 03:20:27;;;;;;;7.65;6.53;;;13.60;99.90;;;;;;5012714;28;20037;-31
2023/06/16 03:22:53;;;;;;;7.18;6.38;;;13.60;99.90;;;;;;5011467;28;20026;-31
2023/06/16 03:25:21;;;;;;;6.88;6.18;;;13.60;99.90;;;;;;5011878;28;20439;-32
2023/06/16 03:27:46;;;;;;;8.63;6.82;;;13.50;99.90;;;;;;5011280;28;20068;-34
2023/06/16 03:30:12;;;;;;;8.85;5.85;;;13.60;99.90;;;;;;5011763;28;20481;-34
2023/06/16 03:32:38;;;;;;;9.13;6.72;;;13.60;99.90;;;;;;5015643;28;20291;-32
2023/06/16 03:35:06;;;;;;;8.38;6.95;;;13.60;99.90;;;;;;5011395;28;20406;-32
2023/06/16 03:37:32;;;;;;;6.75;6.05;;;13.60;99.90;;;;;;5010870;28;20777;-32
2023/06/16 03:40:05;;;;;;;7.35;6.50;;;13.60;99.90;;;;;;5011356;28;20476;-32
2023/06/16 03:42:34;;;;;;;8.80;7.38;;;13.60;99.90;;;;;;5010753;28;20084;-32
2023/06/16 03:45:00;;;;;;;8.40;6.63;;;13.60;99.90;;;;;;5011446;28;20087;-32
2023/06/16 03:47:27;;;;;;;9.20;7.45;;;13.70;99.90;;;;;;4998077;28;20180;-32
2023/06/16 03:49:53;;;;;;;9.90;7.03;;;13.70;99.90;;;;;;5013092;28;20041;-32
2023/06/16 03:52:19;;;;;;;10.10;6.80;;;13.70;99.90;;;;;;5019345;28;20150;-35
2023/06/16 03:54:46;;;;;;;9.07;7.10;;;13.70;99.90;;;;;;5010200;28;20045;-32
2023/06/16 03:57:12;;;;;;;10.07;6.72;;;13.80;99.90;;;;;;5010964;28;20478;-32
2023/06/16 03:59:38;;;;;;;8.00;7.20;;;13.80;99.90;;;;;;4993788;28;20131;-32
2023/06/16 04:02:07;;;;;;;8.02;6.90;;;13.80;99.90;;;;;;5010786;28;20534;-32
2023/06/16 04:04:37;;;;;;;8.20;7.40;;;13.80;99.90;;;;;;5009951;28;20049;-35
2023/06/16 04:07:04;;;;;;;9.52;6.60;;;13.90;99.90;;;;;;5010845;28;20038;-32
2023/06/16 04:09:30;;;;;;;12.80;6.82;;;13.90;99.90;;;;;;5009946;28;20109;-34
2023/06/16 04:11:57;;;;;;;8.80;7.95;;;13.90;99.90;;;;;;5017432;28;20038;-32
2023/06/16 04:14:22;;;;;;;11.68;7.95;;;13.90;99.90;;;;;;5009625;28;20041;-32
2023/06/16 04:16:48;;;;;;;10.73;8.00;;;14.00;99.90;;;;;;5016531;28;20033;-32
2023/06/16 04:19:17;;;;;;;12.27;8.15;;;14.10;99.90;;;;;;5011658;28;20390;-32
2023/06/16 04:21:43;;;;;;;11.52;8.02;;;14.10;99.90;;;;;;5012404;28;20048;-32
2023/06/16 04:24:10;;;;;;;9.70;8.45;;;14.20;99.90;;;;;;5014299;28;20037;-32
2023/06/16 04:26:37;;;;;;;9.43;8.52;;;14.30;99.90;;;;;;4992659;28;20042;-32
2023/06/16 04:29:06;;;;;;;10.20;9.23;;;14.30;99.90;;;;;;5016408;28;20048;-32
2023/06/16 04:31:35;;;;;;;12.45;8.98;;;14.40;99.90;;;;;;5012981;28;20049;-32
2023/06/16 04:34:04;;;;;;;9.85;8.85;;;14.50;99.90;;;;;;5007594;28;20495;-33
2023/06/16 04:36:30;;;;;;;11.10;9.88;;;14.60;99.90;;;;;;5010337;28;20124;-33
2023/06/16 04:38:59;;;;;;;12.23;11.02;;;14.70;99.90;;;;;;5011180;28;20451;-33
2023/06/16 04:41:25;;;;;;;11.75;10.55;;;14.70;99.90;;;;;;5013109;28;20052;-32
2023/06/16 04:43:51;;;;;;;11.98;10.70;;;14.80;99.90;;;;;;5008268;28;20038;-32
2023/06/16 04:46:17;;;;;;;11.15;10.05;;;14.90;99.90;;;;;;5015267;28;20033;-33
2023/06/16 04:48:42;;;;;;;11.18;10.07;;;14.90;99.90;;;;;;5014875;28;20042;-36
2023/06/16 04:51:08;;;;;;;11.82;10.63;;;15.00;99.90;;;;;;5011781;28;20040;-34
2023/06/16 04:53:34;;;;;;;12.98;11.50;;;15.00;99.90;;;;;;5006929;28;20475;-37
2023/06/16 04:56:00;;;;;;;12.02;10.80;;;15.00;99.90;;;;;;5004786;28;20045;-37
2023/06/16 04:58:25;;;;;;;12.00;10.80;;;15.10;99.90;;;;;;5016794;28;20512;-33
2023/06/16 05:00:51;;;;;;;12.63;11.38;;;15.10;99.90;;;;;;5007980;28;20485;-33
2023/06/16 05:03:17;;;;;;;15.80;11.63;;;15.10;99.90;;;;;;5010445;28;20127;-36
2023/06/16 05:05:43;;;;;;;13.25;11.07;;;15.20;99.90;;;;;;5001906;28;20121;-34
2023/06/16 05:08:09;;;;;;;11.57;10.48;;;15.30;99.90;;;;;;4993868;28;20440;-36
2023/06/16 05:10:35;;;;;;;13.35;12.07;;;15.30;99.90;;;;;;5008249;28;20037;-35
2023/06/16 05:13:01;;;;;;;13.45;12.05;;;15.40;99.90;;;;;;5012677;28;20084;-33
2023/06/16 05:15:27;;;;;;;14.20;12.70;;;15.40;99.90;;;;;;5013189;28;20061;-35
2023/06/16 05:17:52;;;;;;;12.98;11.68;;;15.50;99.90;;;;;;5002803;28;20701;-34
2023/06/16 05:20:18;;;;;;;12.95;11.65;;;15.60;99.90;;;;;;4985801;28;20104;-35
2023/06/16 05:22:44;;;;;;;13.65;12.25;;;15.60;99.90;;;;;;5001949;28;20049;-36
2023/06/16 05:25:10;;;;;;;14.80;12.88;;;15.70;99.90;;;;;;4978292;28;20037;-35
2023/06/16 05:27:35;;;;;;;14.43;11.95;;;15.80;99.90;;;;;;5008890;28;20471;-36
2023/06/16 05:30:01;;;;;;;13.55;12.18;;;15.90;99.90;;;;;;4997344;28;20221;-35
2023/06/16 05:32:27;;;;;;;15.13;12.25;;;15.90;99.90;;;;;;4991266;28;20103;-35
2023/06/16 05:34:53;;;;;;;14.98;13.38;;;16.10;99.90;;;;;;4987936;28;20415;-35
2023/06/16 05:37:20;;;;;;;13.75;12.27;;;16.10;99.90;;;;;;4985804;28;20107;-38
2023/06/16 05:39:47;;;;;;;16.40;12.80;;;16.30;99.90;;;;;;4978574;28;20069;-33
2023/06/16 05:42:14;;;;;;;14.60;13.10;;;16.30;99.90;;;;;;4995111;28;20096;-34
2023/06/16 05:44:44;;;;;;;13.70;12.40;;;16.40;99.90;;;;;;4988598;28;20037;-35
2023/06/16 05:47:10;;;;;;;13.15;11.75;;;16.60;99.90;;;;;;5003783;28;20073;-37
2023/06/16 05:49:36;;;;;;;13.93;12.50;;;16.70;99.90;;;;;;5002691;28;20038;-37
2023/06/16 05:52:04;;;;;;;15.23;13.15;;;16.80;99.90;;;;;;5001072;28;20038;-36
2023/06/16 05:54:30;;;;;;;14.90;12.38;;;17.00;99.90;;;;;;4998174;28;20038;-34
2023/06/16 05:56:56;;;;;;;15.88;14.35;;;17.00;99.90;;;;;;5003194;28;20033;-35
2023/06/16 05:59:22;;;;;;;14.70;12.32;;;17.20;99.90;;;;;;5006889;28;20107;-36
2023/06/16 06:01:49;;;;;;;14.52;13.02;;;17.30;99.90;;;;;;5001621;28;20121;-34
2023/06/16 06:04:15;;;;;;;16.00;14.15;;;17.40;99.90;;;;;;5007377;28;20049;-40
2023/06/16 06:06:40;;;;;;;15.50;12.32;;;17.50;99.90;;;;;;5006103;28;20409;-36
2023/06/16 06:09:06;;;;;;;15.93;13.07;;;17.60;99.90;;;;;;5008359;28;20129;-35
2023/06/16 06:11:32;;;;;;;14.23;12.90;;;17.70;99.90;;;;;;5006146;28;20041;-35
2023/06/16 06:13:58;;;;;;;15.30;13.30;;;17.80;99.90;;;;;;4988830;28;20562;-35
2023/06/16 06:16:23;;;;;;;14.63;13.30;;;17.90;99.90;;;;;;5013681;28;20510;-35
2023/06/16 06:18:50;;;;;;;13.90;12.50;;;18.00;99.90;;;;;;5006694;28;20037;-36
2023/06/16 06:21:16;;;;;;;14.13;12.73;;;18.10;99.90;;;;;;5017500;28;20053;-39
2023/06/16 06:23:41;;;;;;;15.48;12.85;;;18.20;99.90;;;;;;5013364;28;20033;-37
2023/06/16 06:26:07;;;;;;;16.08;12.68;;;18.30;99.90;;;;;;5016787;28;20505;-35
2023/06/16 06:28:33;;;;;;;13.95;12.55;;;18.40;99.90;;;;;;5012140;28;20557;-35
2023/06/16 06:30:58;;;;;;;14.40;13.00;;;18.60;99.90;;;;;;5011235;28;20039;-37
2023/06/16 06:33:24;;;;;;;18.42;12.57;;;18.70;99.90;;;;;;5014355;28;20077;-34
2023/06/16 06:35:50;;;;;;;12.77;11.52;;;18.80;99.90;;;;;;5010997;28;20037;-35
2023/06/16 06:38:15;;;;;;;13.10;11.90;;;18.80;99.90;;;;;;5012845;28;20491;-36
2023/06/16 06:40:41;;;;;;;13.85;12.45;;;18.90;99.90;;;;;;4991411;28;20107;-34
2023/06/16 06:43:07;;;;;;;14.20;12.30;;;19.00;99.90;;;;;;5008103;28;20107;-35
2023/06/16 06:45:32;;;;;;;13.23;11.75;;;19.10;99.90;;;;;;5009201;28;20038;-38
2023/06/16 06:47:58;;;;;;;13.50;12.10;;;19.20;99.90;;;;;;5001434;28;20065;-38
2023/06/16 06:50:26;;;;;;;13.95;12.30;;;19.30;99.90;;;;;;4998970;28;20089;-34
2023/06/16 06:52:52;;;;;;;15.80;12.55;;;19.40;99.90;;;;;;5007551;28;20038;-37
2023/06/16 06:55:18;;;;;;;14.65;13.25;;;19.50;99.90;;;;;;5010428;28;20514;-35
2023/06/16 06:57:44;;;;;;;14.13;12.73;;;19.60;99.90;;;;;;5010028;28;20396;-37
2023/06/16 07:00:10;;;;;;;13.82;12.32;;;19.60;99.90;;;;;;5010628;28;20111;-34
2023/06/16 07:02:36;;;;;;;13.25;11.95;;;19.70;99.90;;;;;;5009700;28;20052;-42
2023/06/16 07:05:02;;;;;;;15.23;13.63;;;19.90;99.90;;;;;;5006709;28;20403;-37
2023/06/16 07:07:28;;;;;;;13.88;12.38;;;20.00;99.90;;;;;;5009836;28;20545;-36
2023/06/16 07:09:54;;;;;;;14.50;12.52;;;20.20;99.90;;;;;;5016248;28;20443;-37
2023/06/16 07:12:19;;;;;;;13.82;12.45;;;20.30;99.90;;;;;;4986839;28;20131;-36
2023/06/16 07:14:47;;;;;;;13.77;11.80;;;20.40;99.90;;;;;;5009033;28;20399;-37
2023/06/16 07:17:12;;;;;;;13.10;11.50;;;20.50;99.90;;;;;;4993266;28;20180;-36
2023/06/16 07:19:38;;;;;;;12.75;11.65;;;20.60;99.90;;;;;;5012141;28;20130;-35
2023/06/16 07:22:05;;;;;;;13.43;11.95;;;20.70;99.90;;;;;;5007202;28;20112;-35
2023/06/16 07:24:31;;;;;;;11.98;10.77;;;20.80;99.90;;;;;;4985045;28;20088;-38
2023/06/16 07:26:59;;;;;;;13.20;11.82;;;21.00;99.90;;;;;;5004974;28;20038;-37
2023/06/16 07:29:26;;;;;;;10.65;9.73;;;21.10;99.90;;;;;;5009658;28;20048;-36
2023/06/16 07:31:51;;;;;;;13.30;10.63;;;21.20;99.90;;;;;;5014154;28;20042;-38
2023/06/16 07:34:18;;;;;;;11.23;10.15;;;21.30;99.90;;;;;;5016549;28;20041;-39
2023/06/16 07:36:43;;;;;;;13.05;10.20;;;21.40;99.90;;;;;;5008965;28;20515;-37
2023/06/16 07:39:09;;;;;;;10.68;9.65;;;21.60;99.90;;;;;;4991990;28;20038;-37
2023/06/16 07:41:35;;;;;;;10.95;9.88;;;21.80;99.90;;;;;;5016772;28;20506;-38
2023/06/16 07:44:00;;;;;;;12.43;9.48;;;21.90;99.90;;;;;;4990825;28;20030;-36
2023/06/16 07:46:27;;;;;;;10.52;9.60;;;22.10;99.90;;;;;;5016707;28;20076;-37
2023/06/16 07:48:54;;;;;;;10.00;8.82;;;22.20;99.90;;;;;;4987308;28;20096;-35
2023/06/16 07:51:21;;;;;;;9.57;8.68;;;22.40;99.90;;;;;;5007725;28;20080;-37
2023/06/16 07:53:48;;;;;;;10.10;9.10;;;22.50;99.90;;;;;;5007982;28;20049;-35
2023/06/16 07:56:15;;;;;;;9.45;8.65;;;22.70;99.90;;;;;;5006130;28;20042;-39
2023/06/16 07:58:40;;;;;;;11.10;8.68;;;22.80;99.90;;;;;;5001436;28;20505;-36
2023/06/16 08:01:06;;;;;;;10.88;9.93;;;22.90;99.90;;;;;;5003258;28;20050;-37
2023/06/16 08:03:32;;;;;;;12.07;10.85;;;23.10;99.90;;;;;;5007966;28;20470;-38
2023/06/16 08:05:58;;;;;;;10.30;9.45;;;23.20;99.90;;;;;;5002234;28;20037;-35
2023/06/16 08:08:27;;;;;;;8.50;7.63;;;23.30;99.90;;;;;;5004100;28;20349;-36
2023/06/16 08:10:58;;;;;;;8.95;8.15;;;23.40;99.90;;;;;;5005608;28;20084;-35
2023/06/16 08:13:25;;;;;;;9.65;8.80;;;23.60;99.90;;;;;;5005975;28;20041;-36
2023/06/16 08:15:50;;;;;;;10.00;7.28;;;23.80;99.90;;;;;;5012591;28;20038;-38
2023/06/16 08:18:19;;;;;;;9.40;7.60;;;23.90;99.90;;;;;;5009862;28;20151;-37
2023/06/16 08:20:46;;;;;;;8.30;7.57;;;24.00;99.90;;;;;;5007940;28;20125;-36
2023/06/16 08:23:12;;;;;;;9.40;7.63;;;24.10;98.90;;;;;;5010823;28;20061;-35
2023/06/16 08:25:38;;;;;;;7.82;7.13;;;24.20;98.50;;;;;;5004323;28;20037;-34
2023/06/16 08:28:07;;;;;;;9.13;7.45;;;24.40;97.80;;;;;;4987020;28;20042;-35
2023/06/16 08:30:36;;;;;;;11.27;7.28;;;24.50;96.10;;;;;;5010487;28;20530;-37
2023/06/16 08:33:02;;;;;;;7.70;7.10;;;24.50;95.60;;;;;;5010282;28;20044;-35
2023/06/16 08:35:28;;;;;;;8.38;7.22;;;24.50;94.50;;;;;;5010861;28;20041;-35
2023/06/16 08:37:54;;;;;;;8.25;6.15;;;24.60;94.90;;;;;;5000164;28;20029;-37
2023/06/16 08:40:20;;;;;;;6.90;6.30;;;24.70;94.60;;;;;;5005729;28;20120;-36
2023/06/16 08:42:47;;;;;;;6.65;6.10;;;24.90;93.90;;;;;;5009761;28;20073;-35
2023/06/16 08:45:13;;;;;;;7.82;7.13;;;25.10;93.70;;;;;;5007238;28;20037;-35
2023/06/16 08:47:39;;;;;;;7.80;7.00;;;25.30;92.60;;;;;;5006405;28;20069;-38
2023/06/16 08:50:08;;;;;;;7.75;7.05;;;25.40;91.50;;;;;;5010898;28;20431;-35
2023/06/16 08:52:40;;;;;;;7.18;6.43;;;25.60;90.90;;;;;;5006439;28;20044;-39
2023/06/16 08:55:11;;;;;;;6.68;6.03;;;25.70;91.00;;;;;;5008541;28;20034;-38
2023/06/16 08:57:48;;;;;;;7.63;6.72;;;25.90;90.50;;;;;;5005309;28;20499;-35
2023/06/16 09:00:15;;;;;;;8.55;6.35;;;26.00;88.20;;;;;;5006891;28;20034;-37
2023/06/16 09:02:41;;;;;;;7.45;6.75;;;26.20;88.30;;;;;;5002512;28;20037;-37
2023/06/16 09:05:08;;;;;;;6.70;6.10;;;26.40;85.90;;;;;;5008583;28;20105;-36
2023/06/16 09:07:35;;;;;;;8.07;6.68;;;26.40;84.60;;;;;;5002374;28;20044;-39
2023/06/16 09:10:01;;;;;;;6.90;6.30;;;26.50;84.10;;;;;;5008178;28;20116;-38
2023/06/16 09:12:28;;;;;;;7.22;6.63;;;26.60;83.20;;;;;;5006481;28;20033;-37
2023/06/16 09:14:53;;;;;;;7.20;6.60;;;26.70;81.70;;;;;;5007149;28;20142;-35
2023/06/16 09:17:27;;;;;;;7.38;6.70;;;26.90;81.00;;;;;;5008357;28;20124;-36
2023/06/16 09:19:53;;;;;;;7.10;6.50;;;26.90;78.30;;;;;;5004024;28;20033;-35
2023/06/16 09:22:23;;;;;;;7.85;7.15;;;26.80;77.90;;;;;;5004412;28;20117;-36
2023/06/16 09:24:56;;;;;;;7.25;6.55;;;26.90;77.60;;;;;;5004178;28;20092;-37
2023/06/16 09:27:28;;;;;;;6.97;6.15;;;27.00;75.50;;;;;;4989972;28;20036;-37
2023/06/16 09:29:58;;;;;;;7.32;6.78;;;27.10;76.30;;;;;;5001624;28;20057;-38
2023/06/16 09:32:24;;;;;;;7.35;6.63;;;27.30;72.30;;;;;;4996890;28;20490;-38
2023/06/16 09:34:50;;;;;;;6.95;6.30;;;27.10;73.50;;;;;;5009810;28;20304;-35
2023/06/16 09:37:20;;;;;;;6.40;5.80;;;27.10;72.40;;;;;;5010702;28;20072;-35
2023/06/16 09:39:46;;;;;;;6.32;5.72;;;27.10;70.50;;;;;;5008900;28;20483;-36
2023/06/16 09:42:12;;;;;;;6.80;6.25;;;27.20;73.00;;;;;;4999659;28;20152;-35
2023/06/16 09:44:39;;;;;;;6.80;6.20;;;27.40;71.10;;;;;;5011028;28;20108;-36
2023/06/16 09:47:05;;;;;;;7.43;5.95;;;27.60;70.30;;;;;;5005757;28;20387;-36
2023/06/16 09:49:30;;;;;;;6.90;6.20;;;27.60;68.70;;;;;;5008899;28;20495;-38
2023/06/16 09:51:57;;;;;;;5.93;5.43;;;27.70;68.70;;;;;;5008985;28;20125;-36
2023/06/16 09:54:25;;;;;;;6.47;5.90;;;27.90;69.20;;;;;;5004764;28;20353;-38
2023/06/16 09:56:54;;;;;;;6.70;6.00;;;28.10;68.00;;;;;;5002228;28;20087;-38
2023/06/16 09:59:20;;;;;;;6.40;5.80;;;28.30;66.70;;;;;;5009951;28;20026;-37
2023/06/16 10:01:47;;;;;;;5.82;5.43;;;28.60;66.30;;;;;;5013268;28;20052;-36
2023/06/16 10:04:15;;;;;;;7.65;5.82;;;28.80;65.70;;;;;;5011626;28;20042;-35
2023/06/16 10:06:54;;;;;;;6.78;5.20;;;29.00;63.60;;;;;;5009640;28;20030;-42
2023/06/16 10:09:27;;;;;;;5.82;5.32;;;28.90;62.90;;;;;;5016042;28;20045;-36
2023/06/16 10:11:57;;;;;;;6.45;5.90;;;29.00;62.60;;;;;;5011327;28;20069;-41
2023/06/16 10:14:27;;;;;;;7.47;6.35;;;29.20;61.70;;;;;;5012500;28;20061;-38
2023/06/16 10:16:54;;;;;;;6.35;5.80;;;29.20;59.80;;;;;;5001763;28;20042;-36
2023/06/16 10:19:22;;;;;;;5.70;5.20;;;29.00;59.80;;;;;;5012610;28;20117;-38
2023/06/16 10:21:49;;;;;;;6.90;5.65;;;29.10;58.70;;;;;;5012008;28;20045;-39
2023/06/16 10:24:16;;;;;;;6.57;5.50;;;29.30;59.20;;;;;;4992021;28;20492;-35
2023/06/16 10:26:43;;;;;;;5.93;5.32;;;29.50;58.40;;;;;;5009068;28;20448;-37
2023/06/16 10:29:16;;;;;;;6.10;5.60;;;29.70;57.80;;;;;;5005639;28;20496;-37
2023/06/16 10:31:49;;;;;;;5.72;5.22;;;29.80;58.20;;;;;;5012782;28;20045;-40
2023/06/16 10:34:20;;;;;;;6.80;5.00;;;29.80;57.00;;;;;;5011334;28;20407;-36
2023/06/16 10:36:48;;;;;;;5.60;5.10;;;29.90;55.50;;;;;;5011320;28;20078;-36
2023/06/16 10:39:13;;;;;;;6.32;5.72;;;29.70;55.70;;;;;;5011929;28;20592;-36
2023/06/16 10:41:56;;;;;;;6.03;5.22;;;29.70;55.60;;;;;;5011757;28;20121;-40
2023/06/16 10:44:30;;;;;;;7.10;4.57;;;29.70;53.10;;;;;;5011203;28;20502;-38
2023/06/16 10:47:07;;;;;;;5.40;5.00;;;29.80;55.70;;;;;;5007354;28;20461;-37
2023/06/16 10:49:42;;;;;;;4.65;4.25;;;30.10;54.50;;;;;;5011321;28;20064;-39
2023/06/16 10:52:08;;;;;;;5.07;4.35;;;30.20;53.30;;;;;;5012038;28;20549;-42
2023/06/16 10:54:43;;;;;;;4.88;4.47;;;29.90;50.70;;;;;;5008803;28;20034;-41
2023/06/16 10:57:12;;;;;;;4.97;4.57;;;29.80;51.30;;;;;;5010064;28;20030;-40
2023/06/16 10:59:57;;;;;;;6.05;4.70;;;29.90;50.90;;;;;;5009256;28;20116;-39
2023/06/16 11:02:24;;;;;;;5.10;4.65;;;30.10;50.00;;;;;;5018365;28;20049;-40
2023/06/16 11:05:08;;;;;;;4.50;4.10;;;30.10;49.70;;;;;;5009455;28;20049;-39
2023/06/16 11:07:41;;;;;;;4.80;4.40;;;30.10;48.50;;;;;;5014335;28;20118;-38
2023/06/16 11:10:15;;;;;;;4.15;3.75;;;30.00;49.20;;;;;;5009386;28;20034;-39
2023/06/16 11:12:41;;;;;;;4.32;3.95;;;30.10;47.50;;;;;;5006925;28;20054;-40
2023/06/16 11:15:07;;;;;;;5.13;3.92;;;30.00;46.60;;;;;;5006962;28;20057;-41
2023/06/16 11:17:33;;;;;;;4.60;4.20;;;29.90;46.00;;;;;;5004486;28;20077;-41
2023/06/16 11:20:01;;;;;;;3.97;3.60;;;30.20;47.00;;;;;;5013255;28;20088;-39
2023/06/16 11:22:34;;;;;;;4.82;3.63;;;30.60;46.60;;;;;;4991607;28;20395;-37
2023/06/16 11:25:03;;;;;;;5.07;3.42;;;30.80;43.10;;;;;;5009919;28;20133;-40
2023/06/16 11:27:30;;;;;;;4.32;3.40;;;31.00;44.60;;;;;;5010521;28;20145;-36
2023/06/16 11:29:57;;;;;;;4.15;3.85;;;31.30;43.50;;;;;;5002957;28;20034;-37
2023/06/16 11:32:32;;;;;;;4.55;3.42;;;31.50;43.30;;;;;;4998583;28;20077;-37
2023/06/16 11:34:59;;;;;;;3.97;3.60;;;31.40;43.40;;;;;;4997620;28;20037;-38
2023/06/16 11:37:54;;;;;;;6.75;3.83;;;31.50;42.80;;;;;;4998521;28;20046;-36
2023/06/16 11:40:24;;;;;;;4.65;3.55;;;31.50;41.00;;;;;;5000543;28;20507;-38
2023/06/16 11:43:02;;;;;;;4.00;3.50;;;31.70;41.90;;;;;;4988703;28;20081;-37
2023/06/16 11:45:38;;;;;;;5.10;3.40;;;31.80;43.40;;;;;;4985189;28;20056;-39
2023/06/16 11:48:06;;;;;;;5.00;3.75;;;31.90;43.00;;;;;;4999795;28;20034;-40
2023/06/16 11:50:33;;;;;;;7.50;3.47;;;31.70;41.80;;;;;;4999137;28;20355;-42
2023/06/16 11:52:59;;;;;;;3.75;3.45;;;31.80;41.70;;;;;;5002876;28;20042;-35
2023/06/16 11:55:25;;;;;;;3.40;3.10;;;31.50;40.50;;;;;;5006007;28;20516;-38
2023/06/16 11:57:50;;;;;;;5.43;3.47;;;31.60;40.50;;;;;;4991085;28;20030;-38
2023/06/16 12:00:18;;;;;;;3.75;3.40;;;31.20;40.30;;;;;;5007310;28;20444;-43
2023/06/16 12:02:47;;;;;;;4.65;3.38;;;30.90;39.70;;;;;;5001395;28;20088;-40
2023/06/16 12:05:31;;;;;;;5.00;3.53;;;30.80;40.60;;;;;;5008985;28;20033;-41
2023/06/16 12:07:57;;;;;;;4.22;3.22;;;30.70;38.20;;;;;;5013185;28;20511;-38
2023/06/16 12:10:24;;;;;;;4.13;3.35;;;30.90;40.10;;;;;;5008805;28;20084;-38
2023/06/16 12:12:50;;;;;;;4.13;3.47;;;30.90;39.50;;;;;;5012250;28;20029;-37
2023/06/16 12:15:18;;;;;;;3.45;3.25;;;30.90;38.80;;;;;;4990039;28;20070;-41
2023/06/16 12:17:44;;;;;;;4.47;3.33;;;31.30;40.50;;;;;;4992029;28;20400;-38
2023/06/16 12:20:15;;;;;;;5.68;3.33;;;31.40;39.90;;;;;;5009035;28;20034;-36
2023/06/16 12:22:40;;;;;;;4.47;3.10;;;31.20;37.70;;;;;;5013624;28;20042;-37
2023/06/16 12:25:14;;;;;;;3.30;3.00;;;31.00;38.80;;;;;;5008746;28;20034;-37
2023/06/16 12:27:49;;;;;;;3.28;2.95;;;31.20;39.00;;;;;;5006131;28;20053;-39
2023/06/16 12:30:15;;;;;;;5.70;3.70;;;31.60;38.00;;;;;;5002774;28;20534;-37
2023/06/16 12:32:42;;;;;;;4.82;3.47;;;31.10;38.20;;;;;;5007859;28;20030;-36
2023/06/16 12:35:09;;;;;;;4.40;3.28;;;31.10;39.10;;;;;;5005366;28;20038;-41
2023/06/16 12:37:38;;;;;;;4.80;3.20;;;31.40;39.20;;;;;;5001454;28;20038;-38
2023/06/16 12:40:11;;;;;;;4.72;3.38;;;31.80;38.30;;;;;;5007168;28;20049;-37
2023/06/16 12:42:37;;;;;;;3.97;3.17;;;31.50;37.90;;;;;;5004123;28;20077;-38
2023/06/16 12:45:07;;;;;;;3.70;3.30;;;31.60;38.20;;;;;;5005124;28;20040;-36
2023/06/16 12:47:37;;;;;;;4.82;3.15;;;31.70;37.60;;;;;;4998356;28;20149;-37